sensor_id;sensor_type;location;lat;lon;timestamp;temperature;humidity
23813;DHT22;12087;45.190;5.688;2023-07-02T00:05:20;19.10;99.90
23813;DHT22;12087;45.190;5.688;2023-07-02T00:10:43;19.10;99.90
23813;DHT22;12087;45.190;5.688;2023-07-02T00:16:08;19.10;99.90
23813;DHT22;12087;45.190;5.688;2023-07-02T00:21:31;19.10;99.90
23813;DHT22;12087;45.190;5.688;2023-07-02T00:26:53;19.20;99.90
23813;DHT22;12087;45.190;5.688;2023-07-02T00:32:17;19.10;99.90
23813;DHT22;12087;45.190;5.688;2023-07-02T00:37:39;19.10;99.90
23813;DHT22;12087;45.190;5.688;2023-07-02T00:43:01;19.10;99.90
23813;DHT22;12087;45.190;5.688;2023-07-02T00:48:25;19.00;99.90
23813;DHT22;12087;45.190;5.688;2023-07-02T00:53:48;18.70;99.90
23813;DHT22;12087;45.190;5.688;2023-07-02T00:59:11;18.50;99.90
23813;DHT22;12087;45.190;5.688;2023-07-02T01:04:35;18.40;99.90
23813;DHT22;12087;45.190;5.688;2023-07-02T01:09:57;18.30;99.90
23813;DHT22;12087;45.190;5.688;2023-07-02T01:15:20;18.30;99.90
23813;DHT22;12087;45.190;5.688;2023-07-02T01:20:44;18.30;99.90
23813;DHT22;12087;45.190;5.688;2023-07-02T01:26:08;18.30;99.90
23813;DHT22;12087;45.190;5.688;2023-07-02T01:31:30;18.20;99.90
23813;DHT22;12087;45.190;5.688;2023-07-02T01:36:54;18.20;99.90
23813;DHT22;12087;45.190;5.688;2023-07-02T01:42:17;18.20;99.90
23813;DHT22;12087;45.190;5.688;2023-07-02T01:47:39;18.30;99.90
23813;DHT22;12087;45.190;5.688;2023-07-02T01:53:03;18.30;99.90
23813;DHT22;12087;45.190;5.688;2023-07-02T01:58:25;18.20;99.90
23813;DHT22;12087;45.190;5.688;2023-07-02T02:03:47;18.20;99.90
23813;DHT22;12087;45.190;5.688;2023-07-02T02:09:11;18.20;99.90
23813;DHT22;12087;45.190;5.688;2023-07-02T02:14:33;18.30;99.90
23813;DHT22;12087;45.190;5.688;2023-07-02T02:19:56;18.30;99.90
23813;DHT22;12087;45.190;5.688;2023-07-02T02:25:19;18.20;99.90
23813;DHT22;12087;45.190;5.688;2023-07-02T02:30:42;18.20;99.90
23813;DHT22;12087;45.190;5.688;2023-07-02T02:36:04;18.20;99.90
23813;DHT22;12087;45.190;5.688;2023-07-02T02:41:28;18.20;99.90
23813;DHT22;12087;45.190;5.688;2023-07-02T02:46:50;18.20;99.90
23813;DHT22;12087;45.190;5.688;2023-07-02T02:52:12;18.20;99.90
23813;DHT22;12087;45.190;5.688;2023-07-02T02:57:37;18.20;99.90
23813;DHT22;12087;45.190;5.688;2023-07-02T03:03:00;18.20;99.90
23813;DHT22;12087;45.190;5.688;2023-07-02T03:08:23;18.20;99.90
23813;DHT22;12087;45.190;5.688;2023-07-02T03:13:47;18.20;99.90
23813;DHT22;12087;45.190;5.688;2023-07-02T03:19:09;18.20;99.90
23813;DHT22;12087;45.190;5.688;2023-07-02T03:24:31;18.20;99.90
23813;DHT22;12087;45.190;5.688;2023-07-02T03:29:55;18.20;99.90
23813;DHT22;12087;45.190;5.688;2023-07-02T03:35:17;18.20;99.90
23813;DHT22;12087;45.190;5.688;2023-07-02T03:40:39;18.20;99.90
23813;DHT22;12087;45.190;5.688;2023-07-02T03:46:03;18.20;99.90
23813;DHT22;12087;45.190;5.688;2023-07-02T03:51:25;18.20;99.90
23813;DHT22;12087;45.190;5.688;2023-07-02T03:56:47;18.20;99.90
23813;DHT22;12087;45.190;5.688;2023-07-02T04:02:11;18.20;99.90
23813;DHT22;12087;45.190;5.688;2023-07-02T04:07:33;18.20;99.90
23813;DHT22;12087;45.190;5.688;2023-07-02T04:12:55;18.30;99.90
23813;DHT22;12087;45.190;5.688;2023-07-02T04:18:19;18.30;99.90
23813;DHT22;12087;45.190;5.688;2023-07-02T04:23:41;18.30;99.90
23813;DHT22;12087;45.190;5.688;2023-07-02T04:29:03;18.30;99.90
23813;DHT22;12087;45.190;5.688;2023-07-02T04:34:27;18.30;99.90
23813;DHT22;12087;45.190;5.688;2023-07-02T04:39:49;18.30;99.90
23813;DHT22;12087;45.190;5.688;2023-07-02T04:45:11;18.30;99.90
23813;DHT22;12087;45.190;5.688;2023-07-02T04:50:35;18.30;99.90
23813;DHT22;12087;45.190;5.688;2023-07-02T04:55:57;18.30;99.90
23813;DHT22;12087;45.190;5.688;2023-07-02T05:01:19;18.30;99.90
23813;DHT22;12087;45.190;5.688;2023-07-02T05:06:43;18.30;99.90
23813;DHT22;12087;45.190;5.688;2023-07-02T05:12:06;18.40;99.90
23813;DHT22;12087;45.190;5.688;2023-07-02T05:17:28;18.40;99.90
23813;DHT22;12087;45.190;5.688;2023-07-02T05:22:52;18.40;99.90
23813;DHT22;12087;45.190;5.688;2023-07-02T05:28:15;18.40;99.90
23813;DHT22;12087;45.190;5.688;2023-07-02T05:33:38;18.40;99.90
23813;DHT22;12087;45.190;5.688;2023-07-02T05:39:02;18.50;99.90
23813;DHT22;12087;45.190;5.688;2023-07-02T05:44:24;18.50;99.90
23813;DHT22;12087;45.190;5.688;2023-07-02T05:49:46;18.50;99.90
23813;DHT22;12087;45.190;5.688;2023-07-02T05:55:11;18.60;99.90
23813;DHT22;12087;45.190;5.688;2023-07-02T06:00:33;18.50;99.90
23813;DHT22;12087;45.190;5.688;2023-07-02T06:05:55;18.70;99.90
23813;DHT22;12087;45.190;5.688;2023-07-02T06:11:19;18.70;99.90
23813;DHT22;12087;45.190;5.688;2023-07-02T06:16:41;18.80;99.90
23813;DHT22;12087;45.190;5.688;2023-07-02T06:22:03;18.80;99.90
23813;DHT22;12087;45.190;5.688;2023-07-02T06:27:27;18.90;99.90
23813;DHT22;12087;45.190;5.688;2023-07-02T06:32:50;19.00;99.90
23813;DHT22;12087;45.190;5.688;2023-07-02T06:38:12;19.00;99.90
23813;DHT22;12087;45.190;5.688;2023-07-02T06:43:36;19.10;99.90
23813;DHT22;12087;45.190;5.688;2023-07-02T06:48:58;19.10;99.90
23813;DHT22;12087;45.190;5.688;2023-07-02T06:54:20;19.20;99.90
23813;DHT22;12087;45.190;5.688;2023-07-02T06:59:44;19.20;99.90
23813;DHT22;12087;45.190;5.688;2023-07-02T07:05:07;19.30;99.90
23813;DHT22;12087;45.190;5.688;2023-07-02T07:10:29;19.40;99.90
23813;DHT22;12087;45.190;5.688;2023-07-02T07:15:56;19.40;99.90
23813;DHT22;12087;45.190;5.688;2023-07-02T07:21:19;19.50;99.90
23813;DHT22;12087;45.190;5.688;2023-07-02T07:26:41;19.60;99.90
23813;DHT22;12087;45.190;5.688;2023-07-02T07:32:06;19.70;99.90
23813;DHT22;12087;45.190;5.688;2023-07-02T07:37:28;19.90;99.90
23813;DHT22;12087;45.190;5.688;2023-07-02T07:42:51;20.00;99.90
23813;DHT22;12087;45.190;5.688;2023-07-02T07:48:15;20.20;99.90
23813;DHT22;12087;45.190;5.688;2023-07-02T07:53:38;20.30;99.90
23813;DHT22;12087;45.190;5.688;2023-07-02T07:59:00;20.30;99.90
23813;DHT22;12087;45.190;5.688;2023-07-02T08:04:24;20.40;99.90
23813;DHT22;12087;45.190;5.688;2023-07-02T08:09:47;20.60;99.90
23813;DHT22;12087;45.190;5.688;2023-07-02T08:15:10;20.80;99.90
23813;DHT22;12087;45.190;5.688;2023-07-02T08:20:44;21.00;99.90
23813;DHT22;12087;45.190;5.688;2023-07-02T08:26:06;21.10;99.90
23813;DHT22;12087;45.190;5.688;2023-07-02T08:31:28;20.90;99.90
23813;DHT22;12087;45.190;5.688;2023-07-02T08:36:52;20.90;99.90
23813;DHT22;12087;45.190;5.688;2023-07-02T08:42:14;21.10;99.90
23813;DHT22;12087;45.190;5.688;2023-07-02T08:47:37;21.40;99.90
23813;DHT22;12087;45.190;5.688;2023-07-02T08:53:00;21.60;99.90
23813;DHT22;12087;45.190;5.688;2023-07-02T08:58:23;21.80;99.90
23813;DHT22;12087;45.190;5.688;2023-07-02T09:03:45;22.00;99.90
23813;DHT22;12087;45.190;5.688;2023-07-02T09:09:09;22.30;99.90
23813;DHT22;12087;45.190;5.688;2023-07-02T09:14:31;22.50;99.90
23813;DHT22;12087;45.190;5.688;2023-07-02T09:19:54;22.70;99.90
23813;DHT22;12087;45.190;5.688;2023-07-02T09:25:17;22.80;99.90
23813;DHT22;12087;45.190;5.688;2023-07-02T09:30:49;22.60;99.90
23813;DHT22;12087;45.190;5.688;2023-07-02T09:36:12;22.50;99.90
23813;DHT22;12087;45.190;5.688;2023-07-02T09:41:36;22.40;99.90
23813;DHT22;12087;45.190;5.688;2023-07-02T09:47:02;22.40;99.90
23813;DHT22;12087;45.190;5.688;2023-07-02T09:52:26;22.30;99.90
23813;DHT22;12087;45.190;5.688;2023-07-02T09:57:49;22.70;99.90
23813;DHT22;12087;45.190;5.688;2023-07-02T10:03:12;23.10;99.90
23813;DHT22;12087;45.190;5.688;2023-07-02T10:08:34;23.30;99.90
23813;DHT22;12087;45.190;5.688;2023-07-02T10:14:00;23.60;99.90
23813;DHT22;12087;45.190;5.688;2023-07-02T10:19:23;23.70;99.90
23813;DHT22;12087;45.190;5.688;2023-07-02T10:24:51;24.00;99.90
23813;DHT22;12087;45.190;5.688;2023-07-02T10:30:15;24.10;99.90
23813;DHT22;12087;45.190;5.688;2023-07-02T10:35:38;24.30;99.90
23813;DHT22;12087;45.190;5.688;2023-07-02T10:41:02;24.60;99.90
23813;DHT22;12087;45.190;5.688;2023-07-02T10:46:25;24.90;99.90
23813;DHT22;12087;45.190;5.688;2023-07-02T10:51:57;25.10;99.90
23813;DHT22;12087;45.190;5.688;2023-07-02T10:57:19;25.20;99.90
23813;DHT22;12087;45.190;5.688;2023-07-02T11:02:43;25.40;99.90
23813;DHT22;12087;45.190;5.688;2023-07-02T11:08:08;25.70;99.90
23813;DHT22;12087;45.190;5.688;2023-07-02T11:13:31;25.80;99.90
23813;DHT22;12087;45.190;5.688;2023-07-02T11:19:06;26.00;99.90
23813;DHT22;12087;45.190;5.688;2023-07-02T11:24:31;26.30;99.90
23813;DHT22;12087;45.190;5.688;2023-07-02T11:29:59;26.60;99.90
23813;DHT22;12087;45.190;5.688;2023-07-02T11:35:34;26.80;99.90
23813;DHT22;12087;45.190;5.688;2023-07-02T11:40:56;26.90;99.90
23813;DHT22;12087;45.190;5.688;2023-07-02T11:46:18;27.20;99.90
23813;DHT22;12087;45.190;5.688;2023-07-02T11:51:42;27.10;99.90
23813;DHT22;12087;45.190;5.688;2023-07-02T11:57:09;27.30;99.90
23813;DHT22;12087;45.190;5.688;2023-07-02T12:02:31;27.50;99.90
23813;DHT22;12087;45.190;5.688;2023-07-02T12:07:54;27.70;99.90
23813;DHT22;12087;45.190;5.688;2023-07-02T12:13:16;28.00;99.90
23813;DHT22;12087;45.190;5.688;2023-07-02T12:18:39;28.10;99.90
23813;DHT22;12087;45.190;5.688;2023-07-02T12:24:02;28.00;99.90
23813;DHT22;12087;45.190;5.688;2023-07-02T12:29:29;28.00;99.90
23813;DHT22;12087;45.190;5.688;2023-07-02T12:34:51;28.10;99.90
23813;DHT22;12087;45.190;5.688;2023-07-02T12:40:15;28.00;99.90
23813;DHT22;12087;45.190;5.688;2023-07-02T12:45:37;28.00;99.90
23813;DHT22;12087;45.190;5.688;2023-07-02T12:51:00;28.10;99.90
23813;DHT22;12087;45.190;5.688;2023-07-02T12:56:24;28.40;99.90
23813;DHT22;12087;45.190;5.688;2023-07-02T13:01:46;28.60;99.90
23813;DHT22;12087;45.190;5.688;2023-07-02T13:07:08;28.50;99.90
23813;DHT22;12087;45.190;5.688;2023-07-02T13:12:32;28.60;99.90
23813;DHT22;12087;45.190;5.688;2023-07-02T13:17:54;28.50;99.90
23813;DHT22;12087;45.190;5.688;2023-07-02T13:23:16;28.70;99.90
23813;DHT22;12087;45.190;5.688;2023-07-02T13:28:40;28.80;99.90
23813;DHT22;12087;45.190;5.688;2023-07-02T13:34:02;29.20;99.90
23813;DHT22;12087;45.190;5.688;2023-07-02T13:39:25;29.30;99.90
23813;DHT22;12087;45.190;5.688;2023-07-02T13:44:51;29.20;99.90
23813;DHT22;12087;45.190;5.688;2023-07-02T13:50:13;29.10;99.90
23813;DHT22;12087;45.190;5.688;2023-07-02T13:55:36;29.20;99.90
23813;DHT22;12087;45.190;5.688;2023-07-02T14:00:59;29.30;99.90
23813;DHT22;12087;45.190;5.688;2023-07-02T14:06:22;29.10;99.90
23813;DHT22;12087;45.190;5.688;2023-07-02T14:11:44;29.20;99.90
23813;DHT22;12087;45.190;5.688;2023-07-02T14:17:08;29.10;99.90
23813;DHT22;12087;45.190;5.688;2023-07-02T14:22:30;29.00;99.90
23813;DHT22;12087;45.190;5.688;2023-07-02T14:27:52;28.90;99.80
23813;DHT22;12087;45.190;5.688;2023-07-02T14:33:16;28.60;99.90
23813;DHT22;12087;45.190;5.688;2023-07-02T14:38:38;28.60;99.80
23813;DHT22;12087;45.190;5.688;2023-07-02T14:44:01;28.60;99.90
23813;DHT22;12087;45.190;5.688;2023-07-02T14:49:25;28.60;99.90
23813;DHT22;12087;45.190;5.688;2023-07-02T14:54:47;28.30;98.90
23813;DHT22;12087;45.190;5.688;2023-07-02T15:00:11;28.20;99.00
23813;DHT22;12087;45.190;5.688;2023-07-02T15:05:35;28.10;99.50
23813;DHT22;12087;45.190;5.688;2023-07-02T15:10:59;27.90;99.90
23813;DHT22;12087;45.190;5.688;2023-07-02T15:16:22;27.70;99.90
23813;DHT22;12087;45.190;5.688;2023-07-02T15:21:47;27.50;99.90
23813;DHT22;12087;45.190;5.688;2023-07-02T15:27:09;27.30;99.90
23813;DHT22;12087;45.190;5.688;2023-07-02T15:32:32;27.40;99.90
23813;DHT22;12087;45.190;5.688;2023-07-02T15:37:57;27.30;99.90
23813;DHT22;12087;45.190;5.688;2023-07-02T15:43:20;27.30;99.90
23813;DHT22;12087;45.190;5.688;2023-07-02T15:48:43;27.20;99.90
23813;DHT22;12087;45.190;5.688;2023-07-02T15:54:08;27.10;99.90
23813;DHT22;12087;45.190;5.688;2023-07-02T15:59:32;26.90;99.90
23813;DHT22;12087;45.190;5.688;2023-07-02T16:04:54;26.70;99.90
23813;DHT22;12087;45.190;5.688;2023-07-02T16:10:19;26.60;99.90
23813;DHT22;12087;45.190;5.688;2023-07-02T16:15:42;26.50;99.90
23813;DHT22;12087;45.190;5.688;2023-07-02T16:21:05;26.40;99.90
23813;DHT22;12087;45.190;5.688;2023-07-02T16:26:28;26.30;99.90
23813;DHT22;12087;45.190;5.688;2023-07-02T16:31:52;26.20;99.90
23813;DHT22;12087;45.190;5.688;2023-07-02T16:37:15;26.10;99.90
23813;DHT22;12087;45.190;5.688;2023-07-02T16:42:40;26.10;99.90
23813;DHT22;12087;45.190;5.688;2023-07-02T16:48:03;26.00;99.90
23813;DHT22;12087;45.190;5.688;2023-07-02T16:53:25;25.80;99.90
23813;DHT22;12087;45.190;5.688;2023-07-02T16:58:50;25.80;99.90
23813;DHT22;12087;45.190;5.688;2023-07-02T17:04:12;25.70;99.90
23813;DHT22;12087;45.190;5.688;2023-07-02T17:09:36;25.70;99.90
23813;DHT22;12087;45.190;5.688;2023-07-02T17:15:02;25.60;99.90
23813;DHT22;12087;45.190;5.688;2023-07-02T17:20:24;25.50;99.90
23813;DHT22;12087;45.190;5.688;2023-07-02T17:25:47;25.40;99.90
23813;DHT22;12087;45.190;5.688;2023-07-02T17:31:11;25.30;99.90
23813;DHT22;12087;45.190;5.688;2023-07-02T17:36:33;25.30;99.90
23813;DHT22;12087;45.190;5.688;2023-07-02T17:41:56;25.20;99.90
23813;DHT22;12087;45.190;5.688;2023-07-02T17:47:20;25.20;99.90
23813;DHT22;12087;45.190;5.688;2023-07-02T17:52:42;25.10;99.90
23813;DHT22;12087;45.190;5.688;2023-07-02T17:58:05;25.00;99.90
23813;DHT22;12087;45.190;5.688;2023-07-02T18:03:28;24.90;99.90
23813;DHT22;12087;45.190;5.688;2023-07-02T18:08:51;24.70;99.90
23813;DHT22;12087;45.190;5.688;2023-07-02T18:14:13;24.60;99.90
23813;DHT22;12087;45.190;5.688;2023-07-02T18:19:38;24.40;99.90
23813;DHT22;12087;45.190;5.688;2023-07-02T18:25:00;24.30;99.90
23813;DHT22;12087;45.190;5.688;2023-07-02T18:30:23;24.20;99.90
23813;DHT22;12087;45.190;5.688;2023-07-02T18:35:48;24.10;99.90
23813;DHT22;12087;45.190;5.688;2023-07-02T18:41:11;24.00;99.90
23813;DHT22;12087;45.190;5.688;2023-07-02T18:46:33;24.00;99.90
23813;DHT22;12087;45.190;5.688;2023-07-02T18:51:58;23.90;99.90
23813;DHT22;12087;45.190;5.688;2023-07-02T18:57:20;23.80;99.90
23813;DHT22;12087;45.190;5.688;2023-07-02T19:02:47;23.80;99.90
23813;DHT22;12087;45.190;5.688;2023-07-02T19:08:11;23.70;99.90
23813;DHT22;12087;45.190;5.688;2023-07-02T19:13:33;23.70;99.90
23813;DHT22;12087;45.190;5.688;2023-07-02T19:18:56;23.60;99.90
23813;DHT22;12087;45.190;5.688;2023-07-02T19:24:19;23.60;99.90
23813;DHT22;12087;45.190;5.688;2023-07-02T19:29:42;23.60;99.90
23813;DHT22;12087;45.190;5.688;2023-07-02T19:35:06;23.60;99.90
23813;DHT22;12087;45.190;5.688;2023-07-02T19:40:30;23.50;99.90
23813;DHT22;12087;45.190;5.688;2023-07-02T19:45:52;23.50;99.90
23813;DHT22;12087;45.190;5.688;2023-07-02T19:51:15;23.40;99.90
23813;DHT22;12087;45.190;5.688;2023-07-02T19:56:38;23.30;99.90
23813;DHT22;12087;45.190;5.688;2023-07-02T20:02:01;23.20;99.90
23813;DHT22;12087;45.190;5.688;2023-07-02T20:07:23;23.10;99.90
23813;DHT22;12087;45.190;5.688;2023-07-02T20:12:47;23.00;99.90
23813;DHT22;12087;45.190;5.688;2023-07-02T20:18:11;22.90;99.90
23813;DHT22;12087;45.190;5.688;2023-07-02T20:23:34;22.90;99.90
23813;DHT22;12087;45.190;5.688;2023-07-02T20:28:57;22.80;99.90
23813;DHT22;12087;45.190;5.688;2023-07-02T20:34:20;22.70;99.90
23813;DHT22;12087;45.190;5.688;2023-07-02T20:39:44;22.70;99.90
23813;DHT22;12087;45.190;5.688;2023-07-02T20:45:12;22.70;99.90
23813;DHT22;12087;45.190;5.688;2023-07-02T20:50:35;22.60;99.90
23813;DHT22;12087;45.190;5.688;2023-07-02T20:55:57;22.50;99.90
23813;DHT22;12087;45.190;5.688;2023-07-02T21:01:21;22.50;99.90
23813;DHT22;12087;45.190;5.688;2023-07-02T21:06:43;22.40;99.90
23813;DHT22;12087;45.190;5.688;2023-07-02T21:12:06;22.30;99.90
23813;DHT22;12087;45.190;5.688;2023-07-02T21:17:30;22.30;99.90
23813;DHT22;12087;45.190;5.688;2023-07-02T21:22:52;22.20;99.90
23813;DHT22;12087;45.190;5.688;2023-07-02T21:28:14;22.20;99.90
23813;DHT22;12087;45.190;5.688;2023-07-02T21:33:42;22.10;99.90
23813;DHT22;12087;45.190;5.688;2023-07-02T21:39:04;22.10;99.90
23813;DHT22;12087;45.190;5.688;2023-07-02T21:44:26;22.10;99.90
23813;DHT22;12087;45.190;5.688;2023-07-02T21:49:50;22.00;99.90
23813;DHT22;12087;45.190;5.688;2023-07-02T21:55:12;22.00;99.90
23813;DHT22;12087;45.190;5.688;2023-07-02T22:00:35;21.90;99.90
23813;DHT22;12087;45.190;5.688;2023-07-02T22:05:59;21.90;99.90
23813;DHT22;12087;45.190;5.688;2023-07-02T22:11:21;21.80;99.90
23813;DHT22;12087;45.190;5.688;2023-07-02T22:16:45;21.80;99.90
23813;DHT22;12087;45.190;5.688;2023-07-02T22:22:09;21.80;99.90
23813;DHT22;12087;45.190;5.688;2023-07-02T22:27:31;21.70;99.90
23813;DHT22;12087;45.190;5.688;2023-07-02T22:32:53;21.70;99.90
23813;DHT22;12087;45.190;5.688;2023-07-02T22:38:17;21.60;99.90
23813;DHT22;12087;45.190;5.688;2023-07-02T22:43:39;21.60;99.90
23813;DHT22;12087;45.190;5.688;2023-07-02T22:49:01;21.50;99.90
23813;DHT22;12087;45.190;5.688;2023-07-02T22:54:27;21.50;99.90
23813;DHT22;12087;45.190;5.688;2023-07-02T22:59:50;21.40;99.90
23813;DHT22;12087;45.190;5.688;2023-07-02T23:05:14;21.40;99.90
23813;DHT22;12087;45.190;5.688;2023-07-02T23:10:39;21.30;99.90
23813;DHT22;12087;45.190;5.688;2023-07-02T23:16:01;21.30;99.90
23813;DHT22;12087;45.190;5.688;2023-07-02T23:21:23;21.30;99.90
23813;DHT22;12087;45.190;5.688;2023-07-02T23:26:47;21.20;99.90
23813;DHT22;12087;45.190;5.688;2023-07-02T23:32:09;21.10;99.90
23813;DHT22;12087;45.190;5.688;2023-07-02T23:37:31;21.10;99.90
23813;DHT22;12087;45.190;5.688;2023-07-02T23:42:56;20.90;99.90
23813;DHT22;12087;45.190;5.688;2023-07-02T23:48:18;20.90;99.90
23813;DHT22;12087;45.190;5.688;2023-07-02T23:53:40;20.80;99.90
23813;DHT22;12087;45.190;5.688;2023-07-02T23:59:04;20.70;99.90
